Winterswijk, Netherlands
Current Conditions -  °F | °C
As of 11:20 PM on Friday 24 Oct 2014 (Local Time) from EDLV Reporting Station
Broken Clouds Broken Clouds  
Wind Chill: 54°   Ceiling: 1300
Heat Index: 54°   Visibility: 6mi
Dew Point: 50°   Wind: 8mph
Humidity: 88%   Direction: 200°SSW
Pressure: 30.03"   Gusts: NA
Location:  51.97°N, 6.72°E
Report Text: EDLV 242120Z 20007KT 160V220 9999 BKN013 12/10 Q1017
Loading
Personal Weather Stations






























Interactive Weather Map
Tropical Storm Tracking
New forecast layout! Learn more

10-Day Weather Forecast

Advertisements
Track Severe Weather on mobile